TRA78V EHAM-LGSA
Flight info
| Callsign | TRA78V |
|---|---|
| Flight time | N/A |
| Altitude | 35000 |
| Route | EDUPO Z739 MISGO DCT DOJOH DCT DODEN DCT NEGIX DCT DINKU M867 XERUM DCT BAVAX DCT RADIZ DCT LUMUS DCT GORPA DCT PETAK DCT DIMIS DCT IPTES UL604 TRL UL612 RUSOS |
| Aircraft | A21N/M-SBDE2E3FGHIJ1J5M1P2RWXYZ/LB1D1G1 |
Departure
| Time | N/A |
|---|---|
| Airport | Amsterdam Airport Schiphol (EHAM) |
Arrival
| Time | 2026-05-08 16:41 |
|---|---|
| Airport | Chania International Airport (LGSA) |
| Time | Latitude | Longitude | Altitude | Speed | Heading |
|---|---|---|---|---|---|
| 2026-05-08 15:16 | 44.24722 | 16.94434 | 35030 ft | 459 kts | 147° |
| 2026-05-08 15:16 | 44.22136 | 16.97039 | 35026 ft | 458 kts | 147° |
| 2026-05-08 15:17 | 44.16958 | 17.02247 | 35026 ft | 461 kts | 147° |
| 2026-05-08 15:17 | 44.11765 | 17.07462 | 35028 ft | 460 kts | 147° |
| 2026-05-08 15:18 | 44.06568 | 17.12670 | 35014 ft | 458 kts | 147° |
| 2026-05-08 15:18 | 44.01388 | 17.17844 | 35016 ft | 459 kts | 148° |
| 2026-05-08 15:19 | 43.96212 | 17.23003 | 35015 ft | 459 kts | 147° |
| 2026-05-08 15:19 | 43.91045 | 17.28148 | 35023 ft | 456 kts | 147° |
| 2026-05-08 15:20 | 43.85890 | 17.33261 | 35015 ft | 456 kts | 147° |
| 2026-05-08 15:20 | 43.80734 | 17.38364 | 35024 ft | 455 kts | 147° |
| 2026-05-08 15:21 | 43.75587 | 17.43451 | 35011 ft | 454 kts | 147° |
| 2026-05-08 15:21 | 43.70426 | 17.48548 | 35020 ft | 455 kts | 147° |
| 2026-05-08 15:22 | 43.65266 | 17.53636 | 35023 ft | 456 kts | 147° |
| 2026-05-08 15:22 | 43.60101 | 17.58708 | 35020 ft | 457 kts | 147° |
| 2026-05-08 15:23 | 43.54918 | 17.63789 | 35022 ft | 456 kts | 147° |
| 2026-05-08 15:23 | 43.49741 | 17.68852 | 35018 ft | 457 kts | 147° |
| 2026-05-08 15:24 | 43.44589 | 17.73874 | 35021 ft | 458 kts | 147° |
| 2026-05-08 15:24 | 43.39393 | 17.78937 | 35015 ft | 459 kts | 147° |
| 2026-05-08 15:25 | 43.34202 | 17.83983 | 34996 ft | 457 kts | 147° |
| 2026-05-08 15:25 | 43.29010 | 17.89018 | 34994 ft | 457 kts | 147° |
| 2026-05-08 15:26 | 43.23814 | 17.94045 | 34993 ft | 457 kts | 147° |
| 2026-05-08 15:26 | 43.18615 | 17.99061 | 34999 ft | 458 kts | 147° |
| 2026-05-08 15:27 | 43.13391 | 18.04097 | 35001 ft | 458 kts | 147° |
| 2026-05-08 15:27 | 43.08187 | 18.09103 | 35011 ft | 457 kts | 147° |
| 2026-05-08 15:28 | 43.02980 | 18.14095 | 35017 ft | 457 kts | 148° |
| 2026-05-08 15:28 | 42.97770 | 18.19083 | 35019 ft | 457 kts | 148° |
| 2026-05-08 15:29 | 42.92552 | 18.24069 | 35016 ft | 459 kts | 148° |
| 2026-05-08 15:29 | 42.87338 | 18.29041 | 35014 ft | 458 kts | 148° |
| 2026-05-08 15:30 | 42.82111 | 18.34009 | 35009 ft | 457 kts | 148° |
| 2026-05-08 15:30 | 42.76890 | 18.38970 | 35006 ft | 457 kts | 148° |
| 2026-05-08 15:31 | 42.71671 | 18.43910 | 34987 ft | 456 kts | 148° |
| 2026-05-08 15:31 | 42.66474 | 18.48825 | 34993 ft | 454 kts | 147° |
| 2026-05-08 15:32 | 42.61308 | 18.53699 | 35000 ft | 455 kts | 147° |
| 2026-05-08 15:32 | 42.56104 | 18.58595 | 34996 ft | 455 kts | 148° |
| 2026-05-08 15:33 | 42.50898 | 18.63491 | 34997 ft | 456 kts | 147° |
| 2026-05-08 15:33 | 42.45685 | 18.68379 | 34990 ft | 456 kts | 147° |
| 2026-05-08 15:34 | 42.40466 | 18.73260 | 35004 ft | 457 kts | 148° |
| 2026-05-08 15:34 | 42.35230 | 18.78153 | 34968 ft | 457 kts | 147° |
| 2026-05-08 15:35 | 42.29968 | 18.83047 | 34976 ft | 460 kts | 147° |
| 2026-05-08 15:35 | 42.24688 | 18.87953 | 34974 ft | 461 kts | 147° |
| 2026-05-08 15:36 | 42.20294 | 18.92031 | 34977 ft | 462 kts | 147° |
| 2026-05-08 15:36 | 42.14100 | 18.97765 | 34978 ft | 462 kts | 148° |
| 2026-05-08 15:37 | 42.08799 | 19.02665 | 34973 ft | 462 kts | 147° |
| 2026-05-08 15:37 | 42.03497 | 19.07557 | 34973 ft | 462 kts | 148° |
| 2026-05-08 15:38 | 41.98190 | 19.12442 | 34970 ft | 463 kts | 148° |
| 2026-05-08 15:38 | 41.92874 | 19.17322 | 34977 ft | 462 kts | 148° |
| 2026-05-08 15:39 | 41.87599 | 19.22156 | 34976 ft | 462 kts | 148° |
| 2026-05-08 15:39 | 41.82287 | 19.27018 | 34978 ft | 462 kts | 148° |
| 2026-05-08 15:40 | 41.76946 | 19.31814 | 34970 ft | 461 kts | 151° |
| 2026-05-08 15:40 | 41.71395 | 19.36137 | 34979 ft | 462 kts | 152° |
| 2026-05-08 15:41 | 41.65825 | 19.40432 | 34981 ft | 462 kts | 152° |
| 2026-05-08 15:41 | 41.60253 | 19.44727 | 34982 ft | 462 kts | 152° |
| 2026-05-08 15:42 | 41.54688 | 19.49010 | 34978 ft | 461 kts | 152° |
| 2026-05-08 15:42 | 41.49117 | 19.53285 | 34989 ft | 463 kts | 152° |
| 2026-05-08 15:43 | 41.43533 | 19.57567 | 34989 ft | 463 kts | 152° |
| 2026-05-08 15:43 | 41.37942 | 19.61844 | 34986 ft | 463 kts | 152° |
| 2026-05-08 15:44 | 41.32352 | 19.66113 | 34983 ft | 463 kts | 152° |
| 2026-05-08 15:44 | 41.26746 | 19.70383 | 34991 ft | 466 kts | 153° |
| 2026-05-08 15:45 | 41.21110 | 19.74669 | 34998 ft | 467 kts | 153° |
| 2026-05-08 15:45 | 41.15472 | 19.78951 | 34993 ft | 467 kts | 153° |
| 2026-05-08 15:46 | 41.09825 | 19.83226 | 34989 ft | 467 kts | 152° |
| 2026-05-08 15:46 | 41.04187 | 19.87487 | 34981 ft | 466 kts | 152° |
| 2026-05-08 15:47 | 40.98559 | 19.91734 | 34982 ft | 466 kts | 153° |
| 2026-05-08 15:47 | 40.92961 | 19.95948 | 34987 ft | 466 kts | 153° |
| 2026-05-08 15:48 | 40.84509 | 20.02295 | 34979 ft | 466 kts | 153° |
| 2026-05-08 15:49 | 40.78852 | 20.06531 | 34975 ft | 469 kts | 153° |
| 2026-05-08 15:49 | 40.73169 | 20.10779 | 34987 ft | 470 kts | 153° |
| 2026-05-08 15:50 | 40.67466 | 20.15035 | 34984 ft | 470 kts | 153° |
| 2026-05-08 15:50 | 40.61783 | 20.19269 | 34981 ft | 469 kts | 153° |
| 2026-05-08 15:51 | 40.56083 | 20.23503 | 34991 ft | 473 kts | 154° |
| 2026-05-08 15:51 | 40.51303 | 20.27047 | 34993 ft | 475 kts | 154° |
| 2026-05-08 15:52 | 40.45548 | 20.31311 | 34989 ft | 475 kts | 154° |
| 2026-05-08 15:52 | 40.39783 | 20.35575 | 34995 ft | 475 kts | 154° |
| 2026-05-08 15:53 | 40.34014 | 20.39832 | 34993 ft | 477 kts | 154° |
| 2026-05-08 15:53 | 40.28193 | 20.44113 | 34995 ft | 481 kts | 154° |
| 2026-05-08 15:54 | 40.22346 | 20.48410 | 35009 ft | 482 kts | 154° |
| 2026-05-08 15:54 | 40.16483 | 20.52711 | 35019 ft | 484 kts | 154° |
| 2026-05-08 15:55 | 40.10605 | 20.57013 | 35002 ft | 485 kts | 155° |
| 2026-05-08 15:55 | 40.01627 | 20.63239 | 35015 ft | 488 kts | 157° |
| 2026-05-08 15:56 | 39.95589 | 20.67282 | 35029 ft | 487 kts | 157° |
| 2026-05-08 15:56 | 39.89556 | 20.71313 | 35037 ft | 488 kts | 157° |
| 2026-05-08 15:57 | 39.83496 | 20.75342 | 35034 ft | 492 kts | 159° |
| 2026-05-08 15:57 | 39.77407 | 20.79384 | 35056 ft | 495 kts | 159° |
| 2026-05-08 15:58 | 39.71285 | 20.83455 | 35050 ft | 493 kts | 158° |
| 2026-05-08 15:58 | 39.65180 | 20.87500 | 35053 ft | 493 kts | 158° |
| 2026-05-08 15:59 | 39.59055 | 20.91557 | 35041 ft | 497 kts | 159° |
| 2026-05-08 15:59 | 39.52877 | 20.95642 | 35044 ft | 499 kts | 159° |
| 2026-05-08 16:00 | 39.46684 | 20.99720 | 35046 ft | 500 kts | 160° |
| 2026-05-08 16:00 | 39.40483 | 21.03802 | 35046 ft | 501 kts | 159° |
| 2026-05-08 16:01 | 39.34251 | 21.07876 | 35035 ft | 504 kts | 160° |
| 2026-05-08 16:01 | 39.27991 | 21.11972 | 35038 ft | 505 kts | 160° |
| 2026-05-08 16:02 | 39.21733 | 21.16066 | 35039 ft | 503 kts | 161° |
| 2026-05-08 16:02 | 39.15510 | 21.20130 | 35040 ft | 502 kts | 160° |
| 2026-05-08 16:03 | 39.09268 | 21.24206 | 35032 ft | 503 kts | 161° |
| 2026-05-08 16:03 | 39.03056 | 21.28241 | 35043 ft | 503 kts | 161° |
| 2026-05-08 16:04 | 38.96808 | 21.32296 | 35049 ft | 503 kts | 161° |
| 2026-05-08 16:04 | 38.90554 | 21.36339 | 35044 ft | 503 kts | 161° |
| 2026-05-08 16:05 | 38.84305 | 21.40373 | 35038 ft | 503 kts | 161° |
| 2026-05-08 16:05 | 38.78051 | 21.44404 | 35048 ft | 503 kts | 161° |
| 2026-05-08 16:06 | 38.71795 | 21.48429 | 35050 ft | 503 kts | 161° |
| 2026-05-08 16:06 | 38.65559 | 21.52535 | 35043 ft | 505 kts | 160° |
| 2026-05-08 16:07 | 38.59333 | 21.56686 | 35042 ft | 504 kts | 160° |
| 2026-05-08 16:07 | 38.53111 | 21.60810 | 35045 ft | 504 kts | 161° |
| 2026-05-08 16:08 | 38.46880 | 21.64916 | 35047 ft | 504 kts | 161° |
| 2026-05-08 16:08 | 38.40899 | 21.69716 | 35004 ft | 518 kts | 147° |
| 2026-05-08 16:09 | 38.35440 | 21.75715 | 35034 ft | 517 kts | 146° |
| 2026-05-08 16:09 | 38.29959 | 21.81625 | 35028 ft | 516 kts | 146° |
| 2026-05-08 16:10 | 38.24448 | 21.87480 | 35035 ft | 516 kts | 146° |
| 2026-05-08 16:10 | 38.18941 | 21.93319 | 35037 ft | 515 kts | 146° |
| 2026-05-08 16:11 | 38.13434 | 21.99153 | 35036 ft | 515 kts | 147° |
| 2026-05-08 16:11 | 38.07939 | 22.04956 | 35041 ft | 512 kts | 146° |
| 2026-05-08 16:12 | 38.02455 | 22.10740 | 35049 ft | 512 kts | 146° |
| 2026-05-08 16:12 | 37.96969 | 22.16502 | 35031 ft | 511 kts | 146° |
| 2026-05-08 16:13 | 37.91502 | 22.22246 | 35041 ft | 511 kts | 146° |
| 2026-05-08 16:13 | 37.86067 | 22.27943 | 35040 ft | 511 kts | 146° |
| 2026-05-08 16:14 | 37.80609 | 22.33660 | 35053 ft | 507 kts | 146° |
| 2026-05-08 16:14 | 37.75176 | 22.39332 | 35044 ft | 507 kts | 146° |
| 2026-05-08 16:15 | 37.69733 | 22.44998 | 35055 ft | 507 kts | 146° |
| 2026-05-08 16:15 | 37.64314 | 22.50639 | 35033 ft | 501 kts | 146° |
| 2026-05-08 16:16 | 37.58921 | 22.56233 | 35053 ft | 502 kts | 146° |
| 2026-05-08 16:16 | 37.53543 | 22.61825 | 35036 ft | 499 kts | 145° |
| 2026-05-08 16:17 | 37.49096 | 22.66442 | 35053 ft | 498 kts | 146° |
| 2026-05-08 16:17 | 37.42830 | 22.72912 | 35050 ft | 498 kts | 146° |
| 2026-05-08 16:18 | 37.37467 | 22.78437 | 35041 ft | 498 kts | 146° |
| 2026-05-08 16:18 | 37.31942 | 22.83487 | 35050 ft | 485 kts | 158° |
| 2026-05-08 16:19 | 37.25936 | 22.87314 | 35055 ft | 483 kts | 159° |
| 2026-05-08 16:19 | 37.19984 | 22.91136 | 35058 ft | 484 kts | 158° |
| 2026-05-08 16:20 | 37.14012 | 22.95028 | 35064 ft | 484 kts | 158° |
| 2026-05-08 16:20 | 37.11005 | 22.96991 | 34835 ft | 477 kts | 158° |
| 2026-05-08 16:20 | 37.08044 | 22.98914 | 33756 ft | 483 kts | 158° |
| 2026-05-08 16:21 | 37.05042 | 23.00860 | 32683 ft | 488 kts | 158° |
| 2026-05-08 16:21 | 37.02012 | 23.02826 | 31763 ft | 491 kts | 158° |
| 2026-05-08 16:21 | 36.99021 | 23.04769 | 30938 ft | 491 kts | 158° |
| 2026-05-08 16:21 | 36.95997 | 23.06731 | 30201 ft | 489 kts | 158° |
| 2026-05-08 16:22 | 36.92986 | 23.08681 | 29391 ft | 485 kts | 158° |
| 2026-05-08 16:22 | 36.90002 | 23.10613 | 28663 ft | 481 kts | 158° |
| 2026-05-08 16:22 | 36.87055 | 23.12521 | 28213 ft | 472 kts | 158° |
| 2026-05-08 16:22 | 36.84161 | 23.14391 | 27618 ft | 465 kts | 158° |
| 2026-05-08 16:23 | 36.81298 | 23.16239 | 26889 ft | 463 kts | 158° |
| 2026-05-08 16:23 | 36.78444 | 23.18077 | 26169 ft | 460 kts | 158° |
| 2026-05-08 16:23 | 36.75608 | 23.19903 | 25496 ft | 457 kts | 157° |
| 2026-05-08 16:23 | 36.72795 | 23.21713 | 24841 ft | 454 kts | 157° |
| 2026-05-08 16:24 | 36.69997 | 23.23512 | 24184 ft | 451 kts | 157° |
| 2026-05-08 16:24 | 36.67213 | 23.25297 | 23515 ft | 449 kts | 157° |
| 2026-05-08 16:24 | 36.64453 | 23.27069 | 22808 ft | 445 kts | 157° |
| 2026-05-08 16:24 | 36.61714 | 23.28826 | 22117 ft | 441 kts | 157° |
| 2026-05-08 16:25 | 36.59000 | 23.30566 | 21461 ft | 436 kts | 157° |
| 2026-05-08 16:25 | 36.56317 | 23.32287 | 20834 ft | 432 kts | 157° |
| 2026-05-08 16:25 | 36.53655 | 23.33992 | 20228 ft | 428 kts | 157° |
| 2026-05-08 16:25 | 36.51025 | 23.35669 | 19652 ft | 423 kts | 157° |
| 2026-05-08 16:26 | 36.48418 | 23.37330 | 19106 ft | 418 kts | 157° |
| 2026-05-08 16:26 | 36.45878 | 23.38949 | 18575 ft | 414 kts | 157° |
| 2026-05-08 16:26 | 36.43296 | 23.40594 | 18002 ft | 409 kts | 157° |
| 2026-05-08 16:26 | 36.40782 | 23.42197 | 17449 ft | 404 kts | 158° |
| 2026-05-08 16:27 | 36.38331 | 23.43761 | 16884 ft | 400 kts | 158° |
| 2026-05-08 16:27 | 36.35838 | 23.45350 | 16342 ft | 395 kts | 158° |
| 2026-05-08 16:27 | 36.33440 | 23.46879 | 15847 ft | 390 kts | 158° |
| 2026-05-08 16:27 | 36.31023 | 23.48417 | 15358 ft | 391 kts | 158° |
| 2026-05-08 16:28 | 36.28602 | 23.49955 | 14856 ft | 392 kts | 158° |
| 2026-05-08 16:28 | 36.26169 | 23.51498 | 14352 ft | 393 kts | 158° |
| 2026-05-08 16:28 | 36.23732 | 23.53045 | 13831 ft | 395 kts | 158° |
| 2026-05-08 16:28 | 36.21283 | 23.54598 | 13281 ft | 396 kts | 158° |
| 2026-05-08 16:29 | 36.18841 | 23.56145 | 12757 ft | 392 kts | 159° |
| 2026-05-08 16:29 | 36.16431 | 23.57672 | 12252 ft | 386 kts | 159° |
| 2026-05-08 16:29 | 36.14053 | 23.59178 | 11755 ft | 381 kts | 159° |
| 2026-05-08 16:29 | 36.11709 | 23.60660 | 11270 ft | 376 kts | 159° |
| 2026-05-08 16:30 | 36.09407 | 23.62116 | 10948 ft | 367 kts | 159° |
| 2026-05-08 16:30 | 36.07173 | 23.63529 | 10744 ft | 354 kts | 160° |
| 2026-05-08 16:30 | 36.05016 | 23.64894 | 10571 ft | 342 kts | 160° |
| 2026-05-08 16:30 | 36.02935 | 23.66208 | 10420 ft | 330 kts | 160° |
| 2026-05-08 16:31 | 36.00928 | 23.67473 | 10279 ft | 318 kts | 161° |
| 2026-05-08 16:31 | 35.98975 | 23.68702 | 9950 ft | 314 kts | 161° |
| 2026-05-08 16:31 | 35.97026 | 23.69924 | 9498 ft | 314 kts | 161° |
| 2026-05-08 16:31 | 35.95085 | 23.71140 | 9106 ft | 312 kts | 160° |
| 2026-05-08 16:32 | 35.93157 | 23.72352 | 8708 ft | 310 kts | 160° |
| 2026-05-08 16:32 | 35.91240 | 23.73555 | 8315 ft | 308 kts | 160° |
| 2026-05-08 16:32 | 35.89335 | 23.74751 | 7941 ft | 306 kts | 160° |
| 2026-05-08 16:32 | 35.87438 | 23.75942 | 7522 ft | 306 kts | 159° |
| 2026-05-08 16:33 | 35.85546 | 23.77130 | 7153 ft | 304 kts | 159° |
| 2026-05-08 16:33 | 35.83664 | 23.78308 | 6756 ft | 303 kts | 159° |
| 2026-05-08 16:33 | 35.81789 | 23.79483 | 6406 ft | 301 kts | 159° |
| 2026-05-08 16:33 | 35.79951 | 23.80634 | 6055 ft | 299 kts | 158° |
| 2026-05-08 16:34 | 35.78108 | 23.81787 | 5711 ft | 296 kts | 158° |
| 2026-05-08 16:34 | 35.76280 | 23.82931 | 5348 ft | 294 kts | 158° |
| 2026-05-08 16:34 | 35.74468 | 23.84065 | 5015 ft | 291 kts | 158° |
| 2026-05-08 16:34 | 35.72678 | 23.85186 | 4738 ft | 286 kts | 157° |
| 2026-05-08 16:35 | 35.70913 | 23.86289 | 4399 ft | 283 kts | 157° |
| 2026-05-08 16:35 | 35.69174 | 23.87375 | 4130 ft | 277 kts | 157° |
| 2026-05-08 16:35 | 35.67486 | 23.88429 | 3962 ft | 268 kts | 156° |
| 2026-05-08 16:35 | 35.65856 | 23.89448 | 3830 ft | 257 kts | 156° |
| 2026-05-08 16:36 | 35.64300 | 23.90420 | 3714 ft | 246 kts | 156° |
| 2026-05-08 16:36 | 35.62812 | 23.91348 | 3585 ft | 234 kts | 157° |
| 2026-05-08 16:36 | 35.61404 | 23.92238 | 3452 ft | 220 kts | 154° |
| 2026-05-08 16:36 | 35.60295 | 23.93410 | 3361 ft | 208 kts | 128° |
| 2026-05-08 16:37 | 35.59684 | 23.95017 | 3043 ft | 208 kts | 114° |
| 2026-05-08 16:37 | 35.59164 | 23.96659 | 2687 ft | 202 kts | 114° |
| 2026-05-08 16:37 | 35.58663 | 23.98208 | 2376 ft | 189 kts | 114° |
| 2026-05-08 16:37 | 35.58205 | 23.99651 | 2175 ft | 173 kts | 113° |
| 2026-05-08 16:38 | 35.57781 | 24.00945 | 2025 ft | 155 kts | 114° |
| 2026-05-08 16:38 | 35.57380 | 24.02147 | 1795 ft | 151 kts | 115° |
| 2026-05-08 16:38 | 35.56966 | 24.03323 | 1562 ft | 149 kts | 116° |
| 2026-05-08 16:38 | 35.56570 | 24.04500 | 1414 ft | 149 kts | 114° |
| 2026-05-08 16:39 | 35.56187 | 24.05687 | 1407 ft | 150 kts | 114° |
| 2026-05-08 16:39 | 35.55807 | 24.06870 | 1394 ft | 149 kts | 114° |
| 2026-05-08 16:39 | 35.55427 | 24.08040 | 1300 ft | 147 kts | 114° |
| 2026-05-08 16:39 | 35.55047 | 24.09187 | 1134 ft | 144 kts | 114° |
| 2026-05-08 16:40 | 35.54671 | 24.10325 | 999 ft | 144 kts | 112° |
| 2026-05-08 16:40 | 35.54304 | 24.11469 | 817 ft | 144 kts | 112° |
| 2026-05-08 16:40 | 35.53931 | 24.12611 | 655 ft | 144 kts | 110° |
| 2026-05-08 16:40 | 35.53569 | 24.13734 | 512 ft | 134 kts | 110° |
| 2026-05-08 16:41 | 35.53292 | 24.14604 | 502 ft | 73 kts | 111° |
| 2026-05-08 16:41 | 35.53202 | 24.14881 | 491 ft | 16 kts | 111° |
| 2026-05-08 16:41 | 35.53159 | 24.15016 | 493 ft | 17 kts | 111° |
| 2026-05-08 16:42 | 35.53253 | 24.15160 | 501 ft | 15 kts | 23° |
| 2026-05-08 16:42 | 35.53319 | 24.15078 | 502 ft | 17 kts | 286° |
| 2026-05-08 16:42 | 35.53346 | 24.14982 | 502 ft | 18 kts | 296° |
| 2026-05-08 16:42 | 35.53401 | 24.14837 | 502 ft | 20 kts | 292° |
| 2026-05-08 16:43 | 35.53454 | 24.14672 | 502 ft | 21 kts | 291° |
| 2026-05-08 16:43 | 35.53510 | 24.14499 | 503 ft | 23 kts | 291° |
| 2026-05-08 16:43 | 35.53560 | 24.14348 | 503 ft | 13 kts | 312° |
| 2026-05-08 16:43 | 35.53652 | 24.14360 | 503 ft | 15 kts | 6° |
| 2026-05-08 16:44 | 35.53708 | 24.14267 | 503 ft | 15 kts | 287° |
| 2026-05-08 16:44 | 35.53749 | 24.14139 | 503 ft | 17 kts | 294° |
| 2026-05-08 16:44 | 35.53783 | 24.14044 | 503 ft | 6 kts | 292° |
| 2026-05-08 16:44 | 35.53803 | 24.13989 | 503 ft | 8 kts | 309° |
| 2026-05-08 16:45 | 35.53843 | 24.13991 | 503 ft | 6 kts | 32° |
| 2026-05-08 16:45 | 35.53881 | 24.14014 | 503 ft | 2 kts | 22° |
| 2026-05-08 16:45 | 35.53883 | 24.14015 | 503 ft | 0 kts | 22° |
| 2026-05-08 16:45 | 35.53884 | 24.14015 | 503 ft | 1 kts | 22° |
| 2026-05-08 16:46 | 35.53886 | 24.14016 | 503 ft | 0 kts | 22° |